sensor_id;sensor_type;location;lat;lon;timestamp;P1;durP1;ratioP1;P2;durP2;ratioP2
67185;SDS011;54116;53.518;49.398;2023-09-18T00:02:05;10.73;;;6.10;;
67185;SDS011;54116;53.518;49.398;2023-09-18T00:04:31;12.40;;;5.50;;
67185;SDS011;54116;53.518;49.398;2023-09-18T00:06:57;11.38;;;6.03;;
67185;SDS011;54116;53.518;49.398;2023-09-18T00:09:23;10.05;;;5.40;;
67185;SDS011;54116;53.518;49.398;2023-09-18T00:11:49;11.27;;;6.22;;
67185;SDS011;54116;53.518;49.398;2023-09-18T00:14:15;13.43;;;6.65;;
67185;SDS011;54116;53.518;49.398;2023-09-18T00:16:41;11.98;;;5.75;;
67185;SDS011;54116;53.518;49.398;2023-09-18T00:19:07;10.43;;;6.45;;
67185;SDS011;54116;53.518;49.398;2023-09-18T00:21:33;11.77;;;5.57;;
67185;SDS011;54116;53.518;49.398;2023-09-18T00:24:00;11.48;;;6.38;;
67185;SDS011;54116;53.518;49.398;2023-09-18T00:26:26;12.45;;;5.88;;
67185;SDS011;54116;53.518;49.398;2023-09-18T00:28:52;12.80;;;5.82;;
67185;SDS011;54116;53.518;49.398;2023-09-18T00:31:18;11.52;;;6.00;;
67185;SDS011;54116;53.518;49.398;2023-09-18T00:33:45;10.98;;;6.20;;
67185;SDS011;54116;53.518;49.398;2023-09-18T00:36:11;10.70;;;5.10;;
67185;SDS011;54116;53.518;49.398;2023-09-18T00:38:37;10.15;;;5.60;;
67185;SDS011;54116;53.518;49.398;2023-09-18T00:41:03;12.40;;;6.28;;
67185;SDS011;54116;53.518;49.398;2023-09-18T00:43:30;12.77;;;6.47;;
67185;SDS011;54116;53.518;49.398;2023-09-18T00:45:56;11.38;;;6.10;;
67185;SDS011;54116;53.518;49.398;2023-09-18T00:48:22;12.20;;;5.90;;
67185;SDS011;54116;53.518;49.398;2023-09-18T00:50:48;13.73;;;6.43;;
67185;SDS011;54116;53.518;49.398;2023-09-18T00:53:16;10.90;;;5.82;;
67185;SDS011;54116;53.518;49.398;2023-09-18T00:55:45;12.20;;;6.18;;
67185;SDS011;54116;53.518;49.398;2023-09-18T00:58:12;11.82;;;5.30;;
67185;SDS011;54116;53.518;49.398;2023-09-18T01:00:39;10.55;;;5.72;;
67185;SDS011;54116;53.518;49.398;2023-09-18T01:03:06;11.85;;;6.53;;
67185;SDS011;54116;53.518;49.398;2023-09-18T01:05:32;11.73;;;5.50;;
67185;SDS011;54116;53.518;49.398;2023-09-18T01:07:59;13.98;;;6.97;;
67185;SDS011;54116;53.518;49.398;2023-09-18T01:10:27;11.77;;;5.80;;
67185;SDS011;54116;53.518;49.398;2023-09-18T01:13:08;10.98;;;5.45;;
67185;SDS011;54116;53.518;49.398;2023-09-18T01:15:48;13.27;;;6.30;;
67185;SDS011;54116;53.518;49.398;2023-09-18T01:18:23;14.23;;;5.25;;
67185;SDS011;54116;53.518;49.398;2023-09-18T01:20:49;12.38;;;6.03;;
67185;SDS011;54116;53.518;49.398;2023-09-18T01:23:15;11.63;;;6.00;;
67185;SDS011;54116;53.518;49.398;2023-09-18T01:25:42;16.73;;;5.53;;
67185;SDS011;54116;53.518;49.398;2023-09-18T01:28:08;10.15;;;5.88;;
67185;SDS011;54116;53.518;49.398;2023-09-18T01:30:34;13.88;;;6.05;;
67185;SDS011;54116;53.518;49.398;2023-09-18T01:33:00;10.60;;;5.22;;
67185;SDS011;54116;53.518;49.398;2023-09-18T01:35:28;13.45;;;5.80;;
67185;SDS011;54116;53.518;49.398;2023-09-18T01:37:56;13.07;;;6.30;;
67185;SDS011;54116;53.518;49.398;2023-09-18T01:40:24;12.63;;;5.28;;
67185;SDS011;54116;53.518;49.398;2023-09-18T01:42:51;14.80;;;6.32;;
67185;SDS011;54116;53.518;49.398;2023-09-18T01:45:18;12.00;;;5.85;;
67185;SDS011;54116;53.518;49.398;2023-09-18T01:47:45;11.32;;;6.18;;
67185;SDS011;54116;53.518;49.398;2023-09-18T01:50:11;15.90;;;5.95;;
67185;SDS011;54116;53.518;49.398;2023-09-18T01:52:38;13.18;;;5.90;;
67185;SDS011;54116;53.518;49.398;2023-09-18T01:55:04;16.88;;;6.50;;
67185;SDS011;54116;53.518;49.398;2023-09-18T01:57:31;12.85;;;6.35;;
67185;SDS011;54116;53.518;49.398;2023-09-18T01:59:57;13.90;;;6.93;;
67185;SDS011;54116;53.518;49.398;2023-09-18T02:02:23;13.80;;;6.35;;
67185;SDS011;54116;53.518;49.398;2023-09-18T02:04:49;14.52;;;6.53;;
67185;SDS011;54116;53.518;49.398;2023-09-18T02:07:15;14.48;;;5.85;;
67185;SDS011;54116;53.518;49.398;2023-09-18T02:09:41;10.30;;;5.78;;
67185;SDS011;54116;53.518;49.398;2023-09-18T02:12:07;12.50;;;6.07;;
67185;SDS011;54116;53.518;49.398;2023-09-18T02:14:33;13.23;;;6.20;;
67185;SDS011;54116;53.518;49.398;2023-09-18T02:16:59;12.48;;;6.03;;
67185;SDS011;54116;53.518;49.398;2023-09-18T02:19:25;15.07;;;6.15;;
67185;SDS011;54116;53.518;49.398;2023-09-18T02:21:52;13.52;;;5.45;;
67185;SDS011;54116;53.518;49.398;2023-09-18T02:24:18;14.38;;;6.35;;
67185;SDS011;54116;53.518;49.398;2023-09-18T02:26:44;12.13;;;6.05;;
67185;SDS011;54116;53.518;49.398;2023-09-18T02:29:11;14.52;;;6.13;;
67185;SDS011;54116;53.518;49.398;2023-09-18T02:31:39;11.98;;;6.22;;
67185;SDS011;54116;53.518;49.398;2023-09-18T02:34:05;15.50;;;5.63;;
67185;SDS011;54116;53.518;49.398;2023-09-18T02:36:33;12.52;;;5.90;;
67185;SDS011;54116;53.518;49.398;2023-09-18T02:38:59;13.63;;;5.93;;
67185;SDS011;54116;53.518;49.398;2023-09-18T02:41:25;15.23;;;6.13;;
67185;SDS011;54116;53.518;49.398;2023-09-18T02:43:51;12.60;;;5.57;;
67185;SDS011;54116;53.518;49.398;2023-09-18T02:46:17;14.55;;;6.45;;
67185;SDS011;54116;53.518;49.398;2023-09-18T02:48:44;13.77;;;5.80;;
67185;SDS011;54116;53.518;49.398;2023-09-18T02:51:10;14.60;;;6.45;;
67185;SDS011;54116;53.518;49.398;2023-09-18T02:53:36;13.85;;;6.57;;
67185;SDS011;54116;53.518;49.398;2023-09-18T02:56:02;13.27;;;6.43;;
67185;SDS011;54116;53.518;49.398;2023-09-18T02:58:28;15.32;;;6.82;;
67185;SDS011;54116;53.518;49.398;2023-09-18T03:00:56;19.98;;;7.00;;
67185;SDS011;54116;53.518;49.398;2023-09-18T03:03:28;16.52;;;6.78;;
67185;SDS011;54116;53.518;49.398;2023-09-18T03:05:59;12.73;;;6.05;;
67185;SDS011;54116;53.518;49.398;2023-09-18T03:08:29;13.32;;;5.47;;
67185;SDS011;54116;53.518;49.398;2023-09-18T03:10:56;11.98;;;5.70;;
67185;SDS011;54116;53.518;49.398;2023-09-18T03:13:22;12.50;;;5.78;;
67185;SDS011;54116;53.518;49.398;2023-09-18T03:15:48;10.55;;;5.60;;
67185;SDS011;54116;53.518;49.398;2023-09-18T03:18:15;10.15;;;5.22;;
67185;SDS011;54116;53.518;49.398;2023-09-18T03:20:41;13.00;;;5.78;;
67185;SDS011;54116;53.518;49.398;2023-09-18T03:23:07;10.98;;;5.03;;
67185;SDS011;54116;53.518;49.398;2023-09-18T03:25:33;13.95;;;6.20;;
67185;SDS011;54116;53.518;49.398;2023-09-18T03:27:59;10.85;;;5.20;;
67185;SDS011;54116;53.518;49.398;2023-09-18T03:30:25;13.98;;;5.50;;
67185;SDS011;54116;53.518;49.398;2023-09-18T03:32:52;10.95;;;5.88;;
67185;SDS011;54116;53.518;49.398;2023-09-18T03:35:19;12.88;;;6.38;;
67185;SDS011;54116;53.518;49.398;2023-09-18T03:37:46;15.10;;;6.20;;
67185;SDS011;54116;53.518;49.398;2023-09-18T03:40:21;17.70;;;7.07;;
67185;SDS011;54116;53.518;49.398;2023-09-18T03:42:48;18.90;;;7.32;;
67185;SDS011;54116;53.518;49.398;2023-09-18T03:45:14;13.73;;;6.80;;
67185;SDS011;54116;53.518;49.398;2023-09-18T03:47:42;20.27;;;7.88;;
67185;SDS011;54116;53.518;49.398;2023-09-18T03:50:09;14.23;;;6.88;;
67185;SDS011;54116;53.518;49.398;2023-09-18T03:52:36;18.92;;;7.30;;
67185;SDS011;54116;53.518;49.398;2023-09-18T03:55:04;12.80;;;7.00;;
67185;SDS011;54116;53.518;49.398;2023-09-18T03:57:30;20.63;;;6.88;;
67185;SDS011;54116;53.518;49.398;2023-09-18T03:59:56;20.95;;;8.05;;
67185;SDS011;54116;53.518;49.398;2023-09-18T04:02:25;14.02;;;6.60;;
67185;SDS011;54116;53.518;49.398;2023-09-18T04:04:52;13.57;;;7.10;;
67185;SDS011;54116;53.518;49.398;2023-09-18T04:07:20;15.70;;;7.13;;
67185;SDS011;54116;53.518;49.398;2023-09-18T04:09:46;14.02;;;7.38;;
67185;SDS011;54116;53.518;49.398;2023-09-18T04:12:12;14.45;;;6.45;;
67185;SDS011;54116;53.518;49.398;2023-09-18T04:14:38;10.05;;;5.55;;
67185;SDS011;54116;53.518;49.398;2023-09-18T04:17:05;12.48;;;5.82;;
67185;SDS011;54116;53.518;49.398;2023-09-18T04:19:31;11.35;;;5.32;;
67185;SDS011;54116;53.518;49.398;2023-09-18T04:21:57;14.60;;;6.28;;
67185;SDS011;54116;53.518;49.398;2023-09-18T04:24:25;13.93;;;6.20;;
67185;SDS011;54116;53.518;49.398;2023-09-18T04:26:52;13.70;;;5.90;;
67185;SDS011;54116;53.518;49.398;2023-09-18T04:29:18;11.82;;;5.68;;
67185;SDS011;54116;53.518;49.398;2023-09-18T04:31:45;13.93;;;5.47;;
67185;SDS011;54116;53.518;49.398;2023-09-18T04:34:11;15.40;;;5.95;;
67185;SDS011;54116;53.518;49.398;2023-09-18T04:36:37;25.02;;;6.20;;
67185;SDS011;54116;53.518;49.398;2023-09-18T04:39:04;14.13;;;5.63;;
67185;SDS011;54116;53.518;49.398;2023-09-18T04:41:31;12.48;;;6.68;;
67185;SDS011;54116;53.518;49.398;2023-09-18T04:43:57;14.90;;;7.22;;
67185;SDS011;54116;53.518;49.398;2023-09-18T04:46:24;17.08;;;6.70;;
67185;SDS011;54116;53.518;49.398;2023-09-18T04:48:50;18.75;;;7.53;;
67185;SDS011;54116;53.518;49.398;2023-09-18T04:51:17;22.10;;;8.45;;
67185;SDS011;54116;53.518;49.398;2023-09-18T04:53:43;23.25;;;9.75;;
67185;SDS011;54116;53.518;49.398;2023-09-18T04:56:09;18.60;;;9.18;;
67185;SDS011;54116;53.518;49.398;2023-09-18T04:58:38;23.45;;;10.27;;
67185;SDS011;54116;53.518;49.398;2023-09-18T05:01:04;19.75;;;9.45;;
67185;SDS011;54116;53.518;49.398;2023-09-18T05:03:34;20.20;;;9.23;;
67185;SDS011;54116;53.518;49.398;2023-09-18T05:06:00;20.17;;;9.50;;
67185;SDS011;54116;53.518;49.398;2023-09-18T05:08:28;25.52;;;11.15;;
67185;SDS011;54116;53.518;49.398;2023-09-18T05:10:54;20.30;;;10.45;;
67185;SDS011;54116;53.518;49.398;2023-09-18T05:13:21;25.50;;;10.65;;
67185;SDS011;54116;53.518;49.398;2023-09-18T05:15:47;16.83;;;10.38;;
67185;SDS011;54116;53.518;49.398;2023-09-18T05:18:13;18.50;;;8.52;;
67185;SDS011;54116;53.518;49.398;2023-09-18T05:20:39;15.52;;;8.57;;
67185;SDS011;54116;53.518;49.398;2023-09-18T05:23:05;15.13;;;9.45;;
67185;SDS011;54116;53.518;49.398;2023-09-18T05:25:32;17.90;;;8.88;;
67185;SDS011;54116;53.518;49.398;2023-09-18T05:28:02;17.42;;;8.98;;
67185;SDS011;54116;53.518;49.398;2023-09-18T05:30:34;16.40;;;8.65;;
67185;SDS011;54116;53.518;49.398;2023-09-18T05:33:04;17.25;;;9.93;;
67185;SDS011;54116;53.518;49.398;2023-09-18T05:35:32;19.38;;;8.60;;
67185;SDS011;54116;53.518;49.398;2023-09-18T05:37:58;18.45;;;8.75;;
67185;SDS011;54116;53.518;49.398;2023-09-18T05:40:25;14.43;;;8.32;;
67185;SDS011;54116;53.518;49.398;2023-09-18T05:42:55;13.90;;;7.85;;
67185;SDS011;54116;53.518;49.398;2023-09-18T05:45:21;17.17;;;7.82;;
67185;SDS011;54116;53.518;49.398;2023-09-18T05:47:48;19.23;;;7.60;;
67185;SDS011;54116;53.518;49.398;2023-09-18T05:50:15;16.92;;;7.35;;
67185;SDS011;54116;53.518;49.398;2023-09-18T05:52:42;13.30;;;7.55;;
67185;SDS011;54116;53.518;49.398;2023-09-18T05:55:09;13.60;;;6.57;;
67185;SDS011;54116;53.518;49.398;2023-09-18T05:57:36;13.57;;;6.47;;
67185;SDS011;54116;53.518;49.398;2023-09-18T06:00:03;13.95;;;6.50;;
67185;SDS011;54116;53.518;49.398;2023-09-18T06:02:30;12.55;;;6.60;;
67185;SDS011;54116;53.518;49.398;2023-09-18T06:04:57;13.48;;;6.95;;
67185;SDS011;54116;53.518;49.398;2023-09-18T06:07:26;12.10;;;6.00;;
67185;SDS011;54116;53.518;49.398;2023-09-18T06:09:52;9.20;;;5.38;;
67185;SDS011;54116;53.518;49.398;2023-09-18T06:12:19;9.18;;;5.63;;
67185;SDS011;54116;53.518;49.398;2023-09-18T06:14:46;10.35;;;5.47;;
67185;SDS011;54116;53.518;49.398;2023-09-18T06:17:13;10.30;;;4.90;;
67185;SDS011;54116;53.518;49.398;2023-09-18T06:19:40;10.20;;;4.82;;
67185;SDS011;54116;53.518;49.398;2023-09-18T06:22:07;9.90;;;4.40;;
67185;SDS011;54116;53.518;49.398;2023-09-18T06:24:36;10.48;;;4.40;;
67185;SDS011;54116;53.518;49.398;2023-09-18T06:27:03;5.93;;;3.50;;
67185;SDS011;54116;53.518;49.398;2023-09-18T06:29:30;6.10;;;3.40;;
67185;SDS011;54116;53.518;49.398;2023-09-18T06:31:59;6.47;;;3.40;;
67185;SDS011;54116;53.518;49.398;2023-09-18T06:34:26;7.20;;;3.83;;
67185;SDS011;54116;53.518;49.398;2023-09-18T06:36:54;9.50;;;4.40;;
67185;SDS011;54116;53.518;49.398;2023-09-18T06:39:20;8.02;;;3.78;;
67185;SDS011;54116;53.518;49.398;2023-09-18T06:41:48;7.22;;;4.43;;
67185;SDS011;54116;53.518;49.398;2023-09-18T06:44:14;9.68;;;5.07;;
67185;SDS011;54116;53.518;49.398;2023-09-18T06:46:40;10.35;;;4.72;;
67185;SDS011;54116;53.518;49.398;2023-09-18T06:49:07;13.60;;;4.80;;
67185;SDS011;54116;53.518;49.398;2023-09-18T06:51:33;11.13;;;4.20;;
67185;SDS011;54116;53.518;49.398;2023-09-18T06:53:59;8.57;;;4.93;;
67185;SDS011;54116;53.518;49.398;2023-09-18T06:56:28;8.88;;;4.57;;
67185;SDS011;54116;53.518;49.398;2023-09-18T06:58:54;8.40;;;4.50;;
67185;SDS011;54116;53.518;49.398;2023-09-18T07:01:21;10.13;;;4.30;;
67185;SDS011;54116;53.518;49.398;2023-09-18T07:03:49;9.45;;;4.57;;
67185;SDS011;54116;53.518;49.398;2023-09-18T07:06:16;10.57;;;4.32;;
67185;SDS011;54116;53.518;49.398;2023-09-18T07:08:48;9.30;;;4.25;;
67185;SDS011;54116;53.518;49.398;2023-09-18T07:11:18;9.60;;;5.60;;
67185;SDS011;54116;53.518;49.398;2023-09-18T07:13:44;9.02;;;5.28;;
67185;SDS011;54116;53.518;49.398;2023-09-18T07:16:10;11.70;;;4.53;;
67185;SDS011;54116;53.518;49.398;2023-09-18T07:18:37;9.02;;;4.43;;
67185;SDS011;54116;53.518;49.398;2023-09-18T07:21:03;16.58;;;4.72;;
67185;SDS011;54116;53.518;49.398;2023-09-18T07:23:30;12.68;;;5.30;;
67185;SDS011;54116;53.518;49.398;2023-09-18T07:25:56;8.80;;;5.47;;
67185;SDS011;54116;53.518;49.398;2023-09-18T07:28:25;11.05;;;4.97;;
67185;SDS011;54116;53.518;49.398;2023-09-18T07:30:51;11.63;;;5.03;;
67185;SDS011;54116;53.518;49.398;2023-09-18T07:33:17;8.45;;;4.50;;
67185;SDS011;54116;53.518;49.398;2023-09-18T07:35:49;11.68;;;5.40;;
67185;SDS011;54116;53.518;49.398;2023-09-18T07:38:19;9.95;;;4.10;;
67185;SDS011;54116;53.518;49.398;2023-09-18T07:40:46;8.95;;;4.43;;
67185;SDS011;54116;53.518;49.398;2023-09-18T07:43:13;8.35;;;3.75;;
67185;SDS011;54116;53.518;49.398;2023-09-18T07:45:39;7.80;;;3.65;;
67185;SDS011;54116;53.518;49.398;2023-09-18T07:48:17;11.90;;;3.80;;
67185;SDS011;54116;53.518;49.398;2023-09-18T07:50:45;10.40;;;3.85;;
67185;SDS011;54116;53.518;49.398;2023-09-18T07:53:12;7.90;;;3.97;;
67185;SDS011;54116;53.518;49.398;2023-09-18T07:55:38;8.80;;;4.50;;
67185;SDS011;54116;53.518;49.398;2023-09-18T07:58:04;9.30;;;3.78;;
67185;SDS011;54116;53.518;49.398;2023-09-18T08:00:30;9.48;;;3.95;;
67185;SDS011;54116;53.518;49.398;2023-09-18T08:02:58;7.20;;;3.35;;
67185;SDS011;54116;53.518;49.398;2023-09-18T08:05:27;7.05;;;3.50;;
67185;SDS011;54116;53.518;49.398;2023-09-18T08:07:54;7.85;;;4.10;;
67185;SDS011;54116;53.518;49.398;2023-09-18T08:10:25;8.25;;;3.55;;
67185;SDS011;54116;53.518;49.398;2023-09-18T08:12:51;6.40;;;3.38;;
67185;SDS011;54116;53.518;49.398;2023-09-18T08:15:19;9.25;;;3.00;;
67185;SDS011;54116;53.518;49.398;2023-09-18T08:17:47;6.75;;;2.90;;
67185;SDS011;54116;53.518;49.398;2023-09-18T08:20:15;7.05;;;3.47;;
67185;SDS011;54116;53.518;49.398;2023-09-18T08:22:42;7.30;;;2.90;;
67185;SDS011;54116;53.518;49.398;2023-09-18T08:25:10;6.57;;;3.17;;
67185;SDS011;54116;53.518;49.398;2023-09-18T08:27:37;7.55;;;3.70;;
67185;SDS011;54116;53.518;49.398;2023-09-18T08:30:10;7.47;;;3.08;;
67185;SDS011;54116;53.518;49.398;2023-09-18T08:32:37;9.35;;;3.45;;
67185;SDS011;54116;53.518;49.398;2023-09-18T08:35:04;7.30;;;3.38;;
67185;SDS011;54116;53.518;49.398;2023-09-18T08:37:33;7.13;;;3.75;;
67185;SDS011;54116;53.518;49.398;2023-09-18T08:39:59;6.75;;;3.28;;
67185;SDS011;54116;53.518;49.398;2023-09-18T08:42:36;7.53;;;4.13;;
67185;SDS011;54116;53.518;49.398;2023-09-18T08:45:08;6.47;;;3.08;;
67185;SDS011;54116;53.518;49.398;2023-09-18T08:47:37;6.32;;;2.95;;
67185;SDS011;54116;53.518;49.398;2023-09-18T08:50:06;6.72;;;3.83;;
67185;SDS011;54116;53.518;49.398;2023-09-18T08:52:36;6.93;;;3.28;;
67185;SDS011;54116;53.518;49.398;2023-09-18T08:55:04;8.40;;;3.33;;
67185;SDS011;54116;53.518;49.398;2023-09-18T08:57:31;8.45;;;3.10;;
67185;SDS011;54116;53.518;49.398;2023-09-18T08:59:59;9.32;;;4.03;;
67185;SDS011;54116;53.518;49.398;2023-09-18T09:02:31;6.93;;;3.15;;
67185;SDS011;54116;53.518;49.398;2023-09-18T09:04:58;7.43;;;3.50;;
67185;SDS011;54116;53.518;49.398;2023-09-18T09:07:25;6.57;;;3.05;;
67185;SDS011;54116;53.518;49.398;2023-09-18T09:09:55;7.72;;;2.95;;
67185;SDS011;54116;53.518;49.398;2023-09-18T09:15:23;10.55;;;3.63;;
67185;SDS011;54116;53.518;49.398;2023-09-18T09:20:28;7.28;;;3.28;;
67185;SDS011;54116;53.518;49.398;2023-09-18T09:22:59;7.40;;;3.00;;
67185;SDS011;54116;53.518;49.398;2023-09-18T09:25:28;6.65;;;3.60;;
67185;SDS011;54116;53.518;49.398;2023-09-18T09:28:00;7.38;;;3.40;;
67185;SDS011;54116;53.518;49.398;2023-09-18T09:30:31;7.75;;;3.05;;
67185;SDS011;54116;53.518;49.398;2023-09-18T09:32:59;8.45;;;3.80;;
67185;SDS011;54116;53.518;49.398;2023-09-18T09:35:37;9.60;;;3.38;;
67185;SDS011;54116;53.518;49.398;2023-09-18T09:40:39;8.73;;;3.55;;
67185;SDS011;54116;53.518;49.398;2023-09-18T09:43:08;6.82;;;3.40;;
67185;SDS011;54116;53.518;49.398;2023-09-18T09:45:36;6.75;;;3.05;;
67185;SDS011;54116;53.518;49.398;2023-09-18T09:48:04;8.50;;;4.13;;
67185;SDS011;54116;53.518;49.398;2023-09-18T09:50:32;9.57;;;3.55;;
67185;SDS011;54116;53.518;49.398;2023-09-18T09:52:59;7.72;;;3.60;;
67185;SDS011;54116;53.518;49.398;2023-09-18T09:57:57;7.68;;;3.00;;
67185;SDS011;54116;53.518;49.398;2023-09-18T10:00:32;7.65;;;3.60;;
67185;SDS011;54116;53.518;49.398;2023-09-18T10:03:15;6.03;;;2.75;;
67185;SDS011;54116;53.518;49.398;2023-09-18T10:05:45;6.63;;;3.10;;
67185;SDS011;54116;53.518;49.398;2023-09-18T10:08:14;6.65;;;3.20;;
67185;SDS011;54116;53.518;49.398;2023-09-18T10:10:50;6.50;;;3.10;;
67185;SDS011;54116;53.518;49.398;2023-09-18T10:14:04;8.57;;;3.25;;
67185;SDS011;54116;53.518;49.398;2023-09-18T10:16:26;10.48;;;3.33;;
67185;SDS011;54116;53.518;49.398;2023-09-18T10:19:01;8.35;;;3.22;;
67185;SDS011;54116;53.518;49.398;2023-09-18T10:21:50;10.68;;;3.20;;
67185;SDS011;54116;53.518;49.398;2023-09-18T10:24:28;7.57;;;3.58;;
67185;SDS011;54116;53.518;49.398;2023-09-18T10:26:57;8.18;;;3.42;;
67185;SDS011;54116;53.518;49.398;2023-09-18T10:29:26;6.30;;;3.00;;
67185;SDS011;54116;53.518;49.398;2023-09-18T10:31:55;7.28;;;2.75;;
67185;SDS011;54116;53.518;49.398;2023-09-18T10:34:23;6.70;;;3.72;;
67185;SDS011;54116;53.518;49.398;2023-09-18T10:36:51;5.90;;;2.83;;
67185;SDS011;54116;53.518;49.398;2023-09-18T10:39:18;6.82;;;3.35;;
67185;SDS011;54116;53.518;49.398;2023-09-18T10:41:51;12.85;;;3.50;;
67185;SDS011;54116;53.518;49.398;2023-09-18T10:44:19;7.97;;;3.40;;
67185;SDS011;54116;53.518;49.398;2023-09-18T10:46:47;7.05;;;3.72;;
67185;SDS011;54116;53.518;49.398;2023-09-18T10:49:15;6.53;;;2.90;;
67185;SDS011;54116;53.518;49.398;2023-09-18T10:51:42;7.25;;;3.17;;
67185;SDS011;54116;53.518;49.398;2023-09-18T10:54:09;6.63;;;3.22;;
67185;SDS011;54116;53.518;49.398;2023-09-18T10:56:37;9.35;;;3.28;;
67185;SDS011;54116;53.518;49.398;2023-09-18T10:59:06;7.97;;;3.42;;
67185;SDS011;54116;53.518;49.398;2023-09-18T11:01:36;6.38;;;3.33;;
67185;SDS011;54116;53.518;49.398;2023-09-18T11:04:04;6.07;;;2.80;;
67185;SDS011;54116;53.518;49.398;2023-09-18T11:14:47;6.10;;;3.50;;
67185;SDS011;54116;53.518;49.398;2023-09-18T11:22:55;6.82;;;3.45;;
67185;SDS011;54116;53.518;49.398;2023-09-18T11:28:06;8.73;;;3.10;;
67185;SDS011;54116;53.518;49.398;2023-09-18T11:30:35;7.65;;;3.03;;
67185;SDS011;54116;53.518;49.398;2023-09-18T11:33:06;7.45;;;3.22;;
67185;SDS011;54116;53.518;49.398;2023-09-18T11:35:38;5.78;;;2.78;;
67185;SDS011;54116;53.518;49.398;2023-09-18T11:38:19;6.40;;;2.95;;
67185;SDS011;54116;53.518;49.398;2023-09-18T11:40:48;9.75;;;3.47;;
67185;SDS011;54116;53.518;49.398;2023-09-18T11:43:25;7.47;;;3.45;;
67185;SDS011;54116;53.518;49.398;2023-09-18T11:45:58;6.97;;;3.58;;
67185;SDS011;54116;53.518;49.398;2023-09-18T11:48:27;7.38;;;2.97;;
67185;SDS011;54116;53.518;49.398;2023-09-18T11:51:01;6.93;;;3.22;;
67185;SDS011;54116;53.518;49.398;2023-09-18T11:53:33;7.22;;;3.05;;
67185;SDS011;54116;53.518;49.398;2023-09-18T11:56:11;9.93;;;3.60;;
67185;SDS011;54116;53.518;49.398;2023-09-18T11:58:49;7.57;;;3.38;;
67185;SDS011;54116;53.518;49.398;2023-09-18T12:01:17;7.18;;;3.75;;
67185;SDS011;54116;53.518;49.398;2023-09-18T12:03:44;6.35;;;3.42;;
67185;SDS011;54116;53.518;49.398;2023-09-18T12:06:13;7.88;;;4.15;;
67185;SDS011;54116;53.518;49.398;2023-09-18T12:08:41;7.45;;;3.30;;
67185;SDS011;54116;53.518;49.398;2023-09-18T12:11:07;8.50;;;3.70;;
67185;SDS011;54116;53.518;49.398;2023-09-18T12:13:34;7.47;;;4.15;;
67185;SDS011;54116;53.518;49.398;2023-09-18T12:16:01;6.90;;;3.17;;
67185;SDS011;54116;53.518;49.398;2023-09-18T12:18:34;7.78;;;3.60;;
67185;SDS011;54116;53.518;49.398;2023-09-18T12:21:05;6.30;;;3.10;;
67185;SDS011;54116;53.518;49.398;2023-09-18T12:23:36;7.22;;;2.90;;
67185;SDS011;54116;53.518;49.398;2023-09-18T12:26:04;6.88;;;3.85;;
67185;SDS011;54116;53.518;49.398;2023-09-18T12:28:35;6.63;;;3.10;;
67185;SDS011;54116;53.518;49.398;2023-09-18T12:31:02;7.25;;;3.17;;
67185;SDS011;54116;53.518;49.398;2023-09-18T12:33:36;5.25;;;2.60;;
67185;SDS011;54116;53.518;49.398;2023-09-18T12:36:03;7.20;;;3.15;;
67185;SDS011;54116;53.518;49.398;2023-09-18T12:38:30;6.28;;;3.40;;
67185;SDS011;54116;53.518;49.398;2023-09-18T12:40:57;6.75;;;3.83;;
67185;SDS011;54116;53.518;49.398;2023-09-18T12:43:38;6.03;;;3.28;;
67185;SDS011;54116;53.518;49.398;2023-09-18T12:46:06;7.20;;;3.10;;
67185;SDS011;54116;53.518;49.398;2023-09-18T12:48:37;6.65;;;3.47;;
67185;SDS011;54116;53.518;49.398;2023-09-18T12:51:10;7.05;;;2.83;;
67185;SDS011;54116;53.518;49.398;2023-09-18T12:53:37;9.60;;;3.50;;
67185;SDS011;54116;53.518;49.398;2023-09-18T12:56:07;16.02;;;9.43;;
67185;SDS011;54116;53.518;49.398;2023-09-18T12:58:36;10.55;;;5.10;;
67185;SDS011;54116;53.518;49.398;2023-09-18T13:01:03;7.50;;;3.15;;
67185;SDS011;54116;53.518;49.398;2023-09-18T13:03:36;7.78;;;4.22;;
67185;SDS011;54116;53.518;49.398;2023-09-18T13:06:12;6.35;;;3.03;;
67185;SDS011;54116;53.518;49.398;2023-09-18T13:08:48;9.05;;;3.63;;
67185;SDS011;54116;53.518;49.398;2023-09-18T13:11:21;15.40;;;10.80;;
67185;SDS011;54116;53.518;49.398;2023-09-18T13:13:56;14.32;;;8.07;;
67185;SDS011;54116;53.518;49.398;2023-09-18T13:16:24;11.35;;;5.90;;
67185;SDS011;54116;53.518;49.398;2023-09-18T13:18:52;9.40;;;4.82;;
67185;SDS011;54116;53.518;49.398;2023-09-18T13:21:18;11.35;;;4.20;;
67185;SDS011;54116;53.518;49.398;2023-09-18T13:23:45;13.05;;;6.25;;
67185;SDS011;54116;53.518;49.398;2023-09-18T13:26:12;7.57;;;3.65;;
67185;SDS011;54116;53.518;49.398;2023-09-18T13:28:38;7.75;;;3.80;;
67185;SDS011;54116;53.518;49.398;2023-09-18T13:31:06;7.75;;;3.90;;
67185;SDS011;54116;53.518;49.398;2023-09-18T13:33:33;11.15;;;7.85;;
67185;SDS011;54116;53.518;49.398;2023-09-18T13:36:04;13.20;;;6.05;;
67185;SDS011;54116;53.518;49.398;2023-09-18T13:38:31;15.43;;;7.68;;
67185;SDS011;54116;53.518;49.398;2023-09-18T13:40:58;14.38;;;8.20;;
67185;SDS011;54116;53.518;49.398;2023-09-18T13:43:24;11.98;;;5.63;;
67185;SDS011;54116;53.518;49.398;2023-09-18T13:45:52;11.65;;;5.63;;
67185;SDS011;54116;53.518;49.398;2023-09-18T13:48:21;13.98;;;5.18;;
67185;SDS011;54116;53.518;49.398;2023-09-18T13:50:48;14.00;;;5.57;;
67185;SDS011;54116;53.518;49.398;2023-09-18T13:53:17;12.25;;;4.53;;
67185;SDS011;54116;53.518;49.398;2023-09-18T13:55:43;11.90;;;4.90;;
67185;SDS011;54116;53.518;49.398;2023-09-18T13:58:09;9.85;;;4.45;;
67185;SDS011;54116;53.518;49.398;2023-09-18T14:00:36;11.20;;;4.80;;
67185;SDS011;54116;53.518;49.398;2023-09-18T14:03:02;12.20;;;4.90;;
67185;SDS011;54116;53.518;49.398;2023-09-18T14:05:30;11.50;;;4.30;;
67185;SDS011;54116;53.518;49.398;2023-09-18T14:07:59;13.40;;;4.60;;
67185;SDS011;54116;53.518;49.398;2023-09-18T14:10:26;13.55;;;4.28;;
67185;SDS011;54116;53.518;49.398;2023-09-18T14:12:53;13.70;;;4.60;;
67185;SDS011;54116;53.518;49.398;2023-09-18T14:15:23;9.65;;;4.65;;
67185;SDS011;54116;53.518;49.398;2023-09-18T14:17:49;9.80;;;4.03;;
67185;SDS011;54116;53.518;49.398;2023-09-18T14:20:16;14.40;;;4.10;;
67185;SDS011;54116;53.518;49.398;2023-09-18T14:22:44;12.43;;;4.43;;
67185;SDS011;54116;53.518;49.398;2023-09-18T14:25:15;18.35;;;4.43;;
67185;SDS011;54116;53.518;49.398;2023-09-18T14:27:41;12.05;;;4.47;;
67185;SDS011;54116;53.518;49.398;2023-09-18T14:30:08;14.63;;;4.57;;
67185;SDS011;54116;53.518;49.398;2023-09-18T14:32:35;16.70;;;5.05;;
67185;SDS011;54116;53.518;49.398;2023-09-18T14:35:02;11.32;;;4.85;;
67185;SDS011;54116;53.518;49.398;2023-09-18T14:37:34;11.95;;;4.07;;
67185;SDS011;54116;53.518;49.398;2023-09-18T14:40:00;12.55;;;4.55;;
67185;SDS011;54116;53.518;49.398;2023-09-18T14:42:27;11.95;;;4.40;;
67185;SDS011;54116;53.518;49.398;2023-09-18T14:44:53;12.63;;;4.80;;
67185;SDS011;54116;53.518;49.398;2023-09-18T14:47:20;14.50;;;4.60;;
67185;SDS011;54116;53.518;49.398;2023-09-18T14:49:46;13.23;;;4.68;;
67185;SDS011;54116;53.518;49.398;2023-09-18T14:52:14;11.70;;;4.10;;
67185;SDS011;54116;53.518;49.398;2023-09-18T14:54:42;9.43;;;4.13;;
67185;SDS011;54116;53.518;49.398;2023-09-18T14:57:09;9.48;;;4.35;;
67185;SDS011;54116;53.518;49.398;2023-09-18T14:59:35;10.50;;;4.30;;